sensor_id;sensor_type;location;lat;lon;timestamp;temperature;humidity
6930;DHT22;3504;52.616;13.238;2023-02-03T00:01:05;2.10;83.19
6930;DHT22;3504;52.616;13.238;2023-02-03T00:06:06;2.17;83.15
6930;DHT22;3504;52.616;13.238;2023-02-03T00:11:06;2.23;83.54
6930;DHT22;3504;52.616;13.238;2023-02-03T00:16:07;2.29;84.03
6930;DHT22;3504;52.616;13.238;2023-02-03T00:21:07;2.33;84.59
6930;DHT22;3504;52.616;13.238;2023-02-03T00:26:12;2.40;85.14
6930;DHT22;3504;52.616;13.238;2023-02-03T00:31:17;2.49;86.22
6930;DHT22;3504;52.616;13.238;2023-02-03T00:36:19;2.54;86.21
6930;DHT22;3504;52.616;13.238;2023-02-03T00:41:21;2.60;86.49
6930;DHT22;3504;52.616;13.238;2023-02-03T00:46:22;2.64;86.29
6930;DHT22;3504;52.616;13.238;2023-02-03T00:51:22;2.68;86.90
6930;DHT22;3504;52.616;13.238;2023-02-03T00:56:23;2.76;87.20
6930;DHT22;3504;52.616;13.238;2023-02-03T01:01:24;2.78;87.89
6930;DHT22;3504;52.616;13.238;2023-02-03T01:06:25;2.83;88.13
6930;DHT22;3504;52.616;13.238;2023-02-03T01:11:27;2.87;88.26
6930;DHT22;3504;52.616;13.238;2023-02-03T01:16:29;2.89;88.23
6930;DHT22;3504;52.616;13.238;2023-02-03T01:21:30;2.92;88.43
6930;DHT22;3504;52.616;13.238;2023-02-03T01:26:31;2.95;88.27
6930;DHT22;3504;52.616;13.238;2023-02-03T01:31:34;2.94;88.62
6930;DHT22;3504;52.616;13.238;2023-02-03T01:36:36;2.92;88.69
6930;DHT22;3504;52.616;13.238;2023-02-03T01:41:38;2.92;88.58
6930;DHT22;3504;52.616;13.238;2023-02-03T01:46:47;2.91;88.73
6930;DHT22;3504;52.616;13.238;2023-02-03T01:51:48;2.85;88.97
6930;DHT22;3504;52.616;13.238;2023-02-03T01:56:58;2.87;88.95
6930;DHT22;3504;52.616;13.238;2023-02-03T02:02:02;2.84;88.91
6930;DHT22;3504;52.616;13.238;2023-02-03T02:07:05;2.85;89.07
6930;DHT22;3504;52.616;13.238;2023-02-03T02:12:08;2.89;88.96
6930;DHT22;3504;52.616;13.238;2023-02-03T02:22:25;2.89;89.03
6930;DHT22;3504;52.616;13.238;2023-02-03T02:38:49;2.81;89.00
6930;DHT22;3504;52.616;13.238;2023-02-03T02:44:09;2.80;88.88
6930;DHT22;3504;52.616;13.238;2023-02-03T02:49:25;2.77;89.09
6930;DHT22;3504;52.616;13.238;2023-02-03T02:54:30;2.81;89.14
6930;DHT22;3504;52.616;13.238;2023-02-03T02:59:31;2.81;89.25
6930;DHT22;3504;52.616;13.238;2023-02-03T03:04:33;2.78;89.45
6930;DHT22;3504;52.616;13.238;2023-02-03T03:09:42;2.83;89.60
6930;DHT22;3504;52.616;13.238;2023-02-03T03:14:48;2.85;89.62
6930;DHT22;3504;52.616;13.238;2023-02-03T03:19:55;2.81;89.78
6930;DHT22;3504;52.616;13.238;2023-02-03T03:25:08;2.84;90.08
6930;DHT22;3504;52.616;13.238;2023-02-03T03:30:16;2.84;90.13
6930;DHT22;3504;52.616;13.238;2023-02-03T03:35:17;2.87;90.21
6930;DHT22;3504;52.616;13.238;2023-02-03T03:40:29;2.91;90.18
6930;DHT22;3504;52.616;13.238;2023-02-03T03:45:41;2.94;90.20
6930;DHT22;3504;52.616;13.238;2023-02-03T03:50:49;2.98;90.26
6930;DHT22;3504;52.616;13.238;2023-02-03T03:55:51;3.02;90.44
6930;DHT22;3504;52.616;13.238;2023-02-03T04:00:56;3.07;90.61
6930;DHT22;3504;52.616;13.238;2023-02-03T04:05:57;3.08;90.68
6930;DHT22;3504;52.616;13.238;2023-02-03T04:10:58;3.13;90.97
6930;DHT22;3504;52.616;13.238;2023-02-03T04:15:58;3.19;90.89
6930;DHT22;3504;52.616;13.238;2023-02-03T04:20:59;3.26;90.94
6930;DHT22;3504;52.616;13.238;2023-02-03T04:26:00;3.32;91.11
6930;DHT22;3504;52.616;13.238;2023-02-03T04:31:00;3.40;91.80
6930;DHT22;3504;52.616;13.238;2023-02-03T04:36:01;3.46;92.28
6930;DHT22;3504;52.616;13.238;2023-02-03T04:41:01;3.59;92.15
6930;DHT22;3504;52.616;13.238;2023-02-03T04:46:02;3.67;92.20
6930;DHT22;3504;52.616;13.238;2023-02-03T04:51:07;3.79;92.39
6930;DHT22;3504;52.616;13.238;2023-02-03T04:56:07;3.89;92.35
6930;DHT22;3504;52.616;13.238;2023-02-03T05:01:08;3.97;92.79
6930;DHT22;3504;52.616;13.238;2023-02-03T05:06:09;4.11;92.93
6930;DHT22;3504;52.616;13.238;2023-02-03T05:11:09;4.24;93.15
6930;DHT22;3504;52.616;13.238;2023-02-03T05:16:10;4.35;93.23
6930;DHT22;3504;52.616;13.238;2023-02-03T05:21:11;4.49;93.57
6930;DHT22;3504;52.616;13.238;2023-02-03T05:26:11;4.59;93.53
6930;DHT22;3504;52.616;13.238;2023-02-03T05:31:12;4.69;93.69
6930;DHT22;3504;52.616;13.238;2023-02-03T05:36:12;4.84;93.79
6930;DHT22;3504;52.616;13.238;2023-02-03T05:41:13;4.93;94.08
6930;DHT22;3504;52.616;13.238;2023-02-03T05:46:32;5.03;93.94
6930;DHT22;3504;52.616;13.238;2023-02-03T05:51:32;5.13;93.91
6930;DHT22;3504;52.616;13.238;2023-02-03T05:56:33;5.23;94.14
6930;DHT22;3504;52.616;13.238;2023-02-03T06:01:34;5.31;94.19
6930;DHT22;3504;52.616;13.238;2023-02-03T06:06:35;5.41;94.22
6930;DHT22;3504;52.616;13.238;2023-02-03T06:11:36;5.51;94.14
6930;DHT22;3504;52.616;13.238;2023-02-03T06:16:36;5.57;94.12
6930;DHT22;3504;52.616;13.238;2023-02-03T06:21:37;5.67;94.00
6930;DHT22;3504;52.616;13.238;2023-02-03T06:26:37;5.75;94.38
6930;DHT22;3504;52.616;13.238;2023-02-03T06:31:38;5.81;94.12
6930;DHT22;3504;52.616;13.238;2023-02-03T06:36:38;5.88;94.05
6930;DHT22;3504;52.616;13.238;2023-02-03T06:41:39;5.93;94.16
6930;DHT22;3504;52.616;13.238;2023-02-03T06:46:39;6.03;94.24
6930;DHT22;3504;52.616;13.238;2023-02-03T06:51:40;6.14;94.30
6930;DHT22;3504;52.616;13.238;2023-02-03T06:56:40;6.21;94.15
6930;DHT22;3504;52.616;13.238;2023-02-03T07:01:41;6.29;94.15
6930;DHT22;3504;52.616;13.238;2023-02-03T07:06:41;6.34;94.16
6930;DHT22;3504;52.616;13.238;2023-02-03T07:11:42;6.41;94.28
6930;DHT22;3504;52.616;13.238;2023-02-03T07:16:42;6.47;94.02
6930;DHT22;3504;52.616;13.238;2023-02-03T07:21:43;6.55;94.13
6930;DHT22;3504;52.616;13.238;2023-02-03T07:26:43;6.64;94.11
6930;DHT22;3504;52.616;13.238;2023-02-03T07:31:44;6.68;93.95
6930;DHT22;3504;52.616;13.238;2023-02-03T07:36:44;6.70;93.95
6930;DHT22;3504;52.616;13.238;2023-02-03T07:41:45;6.74;94.00
6930;DHT22;3504;52.616;13.238;2023-02-03T07:46:45;6.78;93.98
6930;DHT22;3504;52.616;13.238;2023-02-03T07:51:46;6.78;93.92
6930;DHT22;3504;52.616;13.238;2023-02-03T07:56:46;6.84;93.85
6930;DHT22;3504;52.616;13.238;2023-02-03T08:01:47;6.85;93.82
6930;DHT22;3504;52.616;13.238;2023-02-03T08:06:47;6.88;93.79
6930;DHT22;3504;52.616;13.238;2023-02-03T08:11:49;6.89;93.83
6930;DHT22;3504;52.616;13.238;2023-02-03T08:16:49;6.93;93.75
6930;DHT22;3504;52.616;13.238;2023-02-03T08:21:50;6.92;93.78
6930;DHT22;3504;52.616;13.238;2023-02-03T08:26:50;6.93;93.69
6930;DHT22;3504;52.616;13.238;2023-02-03T08:31:52;6.95;93.76
6930;DHT22;3504;52.616;13.238;2023-02-03T08:36:54;6.98;93.81
6930;DHT22;3504;52.616;13.238;2023-02-03T08:41:54;7.01;93.71
6930;DHT22;3504;52.616;13.238;2023-02-03T08:46:55;7.03;93.70
6930;DHT22;3504;52.616;13.238;2023-02-03T08:51:57;7.05;93.81
6930;DHT22;3504;52.616;13.238;2023-02-03T08:56:58;7.08;93.76
6930;DHT22;3504;52.616;13.238;2023-02-03T09:01:58;7.11;93.86
6930;DHT22;3504;52.616;13.238;2023-02-03T09:07:00;7.18;93.68
6930;DHT22;3504;52.616;13.238;2023-02-03T09:12:05;7.22;93.59
6930;DHT22;3504;52.616;13.238;2023-02-03T09:17:06;7.22;93.59
6930;DHT22;3504;52.616;13.238;2023-02-03T09:22:07;7.26;93.46
6930;DHT22;3504;52.616;13.238;2023-02-03T09:27:08;7.33;93.51
6930;DHT22;3504;52.616;13.238;2023-02-03T09:32:08;7.37;93.44
6930;DHT22;3504;52.616;13.238;2023-02-03T09:37:09;7.39;93.52
6930;DHT22;3504;52.616;13.238;2023-02-03T09:42:37;7.43;93.65
6930;DHT22;3504;52.616;13.238;2023-02-03T09:47:44;7.46;93.59
6930;DHT22;3504;52.616;13.238;2023-02-03T09:52:44;7.51;93.60
6930;DHT22;3504;52.616;13.238;2023-02-03T09:58:03;7.54;93.47
6930;DHT22;3504;52.616;13.238;2023-02-03T10:19:52;7.73;92.76
6930;DHT22;3504;52.616;13.238;2023-02-03T10:25:11;7.77;92.82
6930;DHT22;3504;52.616;13.238;2023-02-03T10:30:37;7.73;92.64
6930;DHT22;3504;52.616;13.238;2023-02-03T10:36:21;7.63;91.91
6930;DHT22;3504;52.616;13.238;2023-02-03T10:41:23;7.48;89.53
6930;DHT22;3504;52.616;13.238;2023-02-03T10:46:30;7.29;89.46
6930;DHT22;3504;52.616;13.238;2023-02-03T10:51:50;7.20;88.99
6930;DHT22;3504;52.616;13.238;2023-02-03T10:56:50;7.08;87.81
6930;DHT22;3504;52.616;13.238;2023-02-03T11:01:51;7.01;86.89
6930;DHT22;3504;52.616;13.238;2023-02-03T11:07:00;6.95;86.82
6930;DHT22;3504;52.616;13.238;2023-02-03T11:12:14;7.02;87.55
6930;DHT22;3504;52.616;13.238;2023-02-03T11:17:21;7.01;86.44
6930;DHT22;3504;52.616;13.238;2023-02-03T11:22:30;7.03;86.41
6930;DHT22;3504;52.616;13.238;2023-02-03T11:27:32;7.24;85.84
6930;DHT22;3504;52.616;13.238;2023-02-03T11:32:36;7.48;85.39
6930;DHT22;3504;52.616;13.238;2023-02-03T11:37:39;7.56;85.09
6930;DHT22;3504;52.616;13.238;2023-02-03T11:42:45;7.57;84.44
6930;DHT22;3504;52.616;13.238;2023-02-03T11:48:30;7.73;83.81
6930;DHT22;3504;52.616;13.238;2023-02-03T11:53:52;7.93;82.98
6930;DHT22;3504;52.616;13.238;2023-02-03T12:10:33;8.18;79.74
6930;DHT22;3504;52.616;13.238;2023-02-03T12:32:08;8.57;73.71
6930;DHT22;3504;52.616;13.238;2023-02-03T12:37:43;8.71;74.36
6930;DHT22;3504;52.616;13.238;2023-02-03T12:42:55;8.59;73.91
6930;DHT22;3504;52.616;13.238;2023-02-03T12:48:09;8.21;75.68
6930;DHT22;3504;52.616;13.238;2023-02-03T12:53:26;7.05;78.50
6930;DHT22;3504;52.616;13.238;2023-02-03T12:58:40;6.19;81.64
6930;DHT22;3504;52.616;13.238;2023-02-03T13:04:37;6.11;83.88
6930;DHT22;3504;52.616;13.238;2023-02-03T13:20:23;5.95;84.76
6930;DHT22;3504;52.616;13.238;2023-02-03T13:31:37;5.93;82.81
6930;DHT22;3504;52.616;13.238;2023-02-03T13:37:04;6.00;83.37
6930;DHT22;3504;52.616;13.238;2023-02-03T13:42:28;6.10;82.18
6930;DHT22;3504;52.616;13.238;2023-02-03T13:47:30;6.21;81.77
6930;DHT22;3504;52.616;13.238;2023-02-03T13:52:40;6.33;82.80
6930;DHT22;3504;52.616;13.238;2023-02-03T13:57:43;6.38;82.29
6930;DHT22;3504;52.616;13.238;2023-02-03T14:02:52;6.51;82.61
6930;DHT22;3504;52.616;13.238;2023-02-03T14:07:53;6.65;82.07
6930;DHT22;3504;52.616;13.238;2023-02-03T14:12:56;6.77;81.93
6930;DHT22;3504;52.616;13.238;2023-02-03T14:18:03;6.84;80.97
6930;DHT22;3504;52.616;13.238;2023-02-03T14:28:21;6.89;80.58
6930;DHT22;3504;52.616;13.238;2023-02-03T14:33:56;7.05;80.11
6930;DHT22;3504;52.616;13.238;2023-02-03T14:39:28;7.22;79.10
6930;DHT22;3504;52.616;13.238;2023-02-03T14:45:02;7.33;78.69
6930;DHT22;3504;52.616;13.238;2023-02-03T14:50:32;7.32;77.72
6930;DHT22;3504;52.616;13.238;2023-02-03T14:56:09;7.32;77.57
6930;DHT22;3504;52.616;13.238;2023-02-03T15:06:50;7.23;77.18
6930;DHT22;3504;52.616;13.238;2023-02-03T15:11:51;7.16;76.96
6930;DHT22;3504;52.616;13.238;2023-02-03T15:17:02;7.12;77.14
6930;DHT22;3504;52.616;13.238;2023-02-03T15:22:18;7.09;77.75
6930;DHT22;3504;52.616;13.238;2023-02-03T15:27:25;7.08;77.36
6930;DHT22;3504;52.616;13.238;2023-02-03T15:32:34;7.09;77.74
6930;DHT22;3504;52.616;13.238;2023-02-03T15:37:43;7.03;78.54
6930;DHT22;3504;52.616;13.238;2023-02-03T15:43:20;6.98;78.54
6930;DHT22;3504;52.616;13.238;2023-02-03T15:59:04;6.81;80.07
6930;DHT22;3504;52.616;13.238;2023-02-03T16:04:08;6.80;79.98
6930;DHT22;3504;52.616;13.238;2023-02-03T16:09:31;6.78;79.73
6930;DHT22;3504;52.616;13.238;2023-02-03T16:14:34;6.80;79.36
6930;DHT22;3504;52.616;13.238;2023-02-03T16:19:35;6.82;79.63
6930;DHT22;3504;52.616;13.238;2023-02-03T16:24:41;6.81;80.25
6930;DHT22;3504;52.616;13.238;2023-02-03T16:29:42;6.77;80.04
6930;DHT22;3504;52.616;13.238;2023-02-03T16:35:01;6.80;80.52
6930;DHT22;3504;52.616;13.238;2023-02-03T16:40:22;6.72;81.10
6930;DHT22;3504;52.616;13.238;2023-02-03T16:45:42;6.72;81.33
6930;DHT22;3504;52.616;13.238;2023-02-03T16:51:09;6.65;81.51
6930;DHT22;3504;52.616;13.238;2023-02-03T16:56:11;6.64;81.34
6930;DHT22;3504;52.616;13.238;2023-02-03T17:01:12;6.63;80.77
6930;DHT22;3504;52.616;13.238;2023-02-03T17:06:12;6.64;80.60
6930;DHT22;3504;52.616;13.238;2023-02-03T17:11:18;6.67;80.16
6930;DHT22;3504;52.616;13.238;2023-02-03T17:16:22;6.71;79.76
6930;DHT22;3504;52.616;13.238;2023-02-03T17:21:27;6.70;78.71
6930;DHT22;3504;52.616;13.238;2023-02-03T17:26:28;6.75;78.46
6930;DHT22;3504;52.616;13.238;2023-02-03T17:31:29;6.81;78.25
6930;DHT22;3504;52.616;13.238;2023-02-03T17:36:30;6.84;78.25
6930;DHT22;3504;52.616;13.238;2023-02-03T17:41:30;6.80;77.81
6930;DHT22;3504;52.616;13.238;2023-02-03T17:46:31;6.89;77.75
6930;DHT22;3504;52.616;13.238;2023-02-03T17:51:32;6.87;77.61
6930;DHT22;3504;52.616;13.238;2023-02-03T17:56:33;6.89;77.97
6930;DHT22;3504;52.616;13.238;2023-02-03T18:01:34;6.87;77.65
6930;DHT22;3504;52.616;13.238;2023-02-03T18:06:35;6.92;77.80
6930;DHT22;3504;52.616;13.238;2023-02-03T18:11:36;6.91;78.27
6930;DHT22;3504;52.616;13.238;2023-02-03T18:16:37;6.88;78.16
6930;DHT22;3504;52.616;13.238;2023-02-03T18:21:38;6.89;77.55
6930;DHT22;3504;52.616;13.238;2023-02-03T18:26:49;6.92;77.76
6930;DHT22;3504;52.616;13.238;2023-02-03T18:31:50;6.93;77.58
6930;DHT22;3504;52.616;13.238;2023-02-03T18:36:51;6.95;77.58
6930;DHT22;3504;52.616;13.238;2023-02-03T18:41:51;6.93;77.76
6930;DHT22;3504;52.616;13.238;2023-02-03T18:46:53;6.96;77.62
6930;DHT22;3504;52.616;13.238;2023-02-03T18:51:53;6.93;77.96
6930;DHT22;3504;52.616;13.238;2023-02-03T18:56:55;6.95;77.63
6930;DHT22;3504;52.616;13.238;2023-02-03T19:01:57;6.96;78.02
6930;DHT22;3504;52.616;13.238;2023-02-03T19:06:58;6.95;77.47
6930;DHT22;3504;52.616;13.238;2023-02-03T19:11:58;6.95;77.88
6930;DHT22;3504;52.616;13.238;2023-02-03T19:16:59;6.98;78.14
6930;DHT22;3504;52.616;13.238;2023-02-03T19:21:59;6.92;78.22
6930;DHT22;3504;52.616;13.238;2023-02-03T19:27:00;6.91;78.91
6930;DHT22;3504;52.616;13.238;2023-02-03T19:32:01;6.84;79.62
6930;DHT22;3504;52.616;13.238;2023-02-03T19:37:02;6.84;80.03
6930;DHT22;3504;52.616;13.238;2023-02-03T19:42:03;6.80;80.50
6930;DHT22;3504;52.616;13.238;2023-02-03T19:47:04;6.74;80.96
6930;DHT22;3504;52.616;13.238;2023-02-03T19:52:05;6.71;81.34
6930;DHT22;3504;52.616;13.238;2023-02-03T19:57:08;6.72;81.35
6930;DHT22;3504;52.616;13.238;2023-02-03T20:02:09;6.68;81.43
6930;DHT22;3504;52.616;13.238;2023-02-03T20:07:11;6.65;81.80
6930;DHT22;3504;52.616;13.238;2023-02-03T20:12:12;6.64;82.25
6930;DHT22;3504;52.616;13.238;2023-02-03T20:17:13;6.58;83.16
6930;DHT22;3504;52.616;13.238;2023-02-03T20:22:13;6.54;83.38
6930;DHT22;3504;52.616;13.238;2023-02-03T20:27:14;6.47;84.22
6930;DHT22;3504;52.616;13.238;2023-02-03T20:32:14;6.41;84.79
6930;DHT22;3504;52.616;13.238;2023-02-03T20:37:14;6.36;85.47
6930;DHT22;3504;52.616;13.238;2023-02-03T20:42:16;6.33;85.83
6930;DHT22;3504;52.616;13.238;2023-02-03T20:47:17;6.30;86.20
6930;DHT22;3504;52.616;13.238;2023-02-03T20:52:21;6.27;86.53
6930;DHT22;3504;52.616;13.238;2023-02-03T20:57:22;6.26;87.03
6930;DHT22;3504;52.616;13.238;2023-02-03T21:02:24;6.19;87.60
6930;DHT22;3504;52.616;13.238;2023-02-03T21:07:50;6.13;88.27
6930;DHT22;3504;52.616;13.238;2023-02-03T21:12:51;5.49;84.47
6930;DHT22;3504;52.616;13.238;2023-02-03T21:17:52;5.14;83.43
6930;DHT22;3504;52.616;13.238;2023-02-03T21:22:54;4.94;84.46
6930;DHT22;3504;52.616;13.238;2023-02-03T21:27:55;4.80;84.20
6930;DHT22;3504;52.616;13.238;2023-02-03T21:32:58;4.62;83.69
6930;DHT22;3504;52.616;13.238;2023-02-03T21:38:01;4.49;83.05
6930;DHT22;3504;52.616;13.238;2023-02-03T21:43:02;4.44;82.91
6930;DHT22;3504;52.616;13.238;2023-02-03T21:53:32;4.25;82.78
6930;DHT22;3504;52.616;13.238;2023-02-03T21:58:35;4.20;82.75
6930;DHT22;3504;52.616;13.238;2023-02-03T22:03:38;4.21;83.75
6930;DHT22;3504;52.616;13.238;2023-02-03T22:08:42;4.20;84.40
6930;DHT22;3504;52.616;13.238;2023-02-03T22:13:43;4.14;84.00
6930;DHT22;3504;52.616;13.238;2023-02-03T22:18:45;4.14;84.21
6930;DHT22;3504;52.616;13.238;2023-02-03T22:23:46;4.11;84.10
6930;DHT22;3504;52.616;13.238;2023-02-03T22:28:47;4.10;83.78
6930;DHT22;3504;52.616;13.238;2023-02-03T22:33:48;4.02;83.85
6930;DHT22;3504;52.616;13.238;2023-02-03T22:38:48;3.95;84.28
6930;DHT22;3504;52.616;13.238;2023-02-03T22:43:48;3.98;84.63
6930;DHT22;3504;52.616;13.238;2023-02-03T22:48:49;3.98;83.70
6930;DHT22;3504;52.616;13.238;2023-02-03T22:53:49;3.94;83.73
6930;DHT22;3504;52.616;13.238;2023-02-03T22:58:50;3.93;83.20
6930;DHT22;3504;52.616;13.238;2023-02-03T23:03:50;3.89;83.77
6930;DHT22;3504;52.616;13.238;2023-02-03T23:08:51;3.81;84.16
6930;DHT22;3504;52.616;13.238;2023-02-03T23:13:52;3.81;84.06
6930;DHT22;3504;52.616;13.238;2023-02-03T23:18:52;3.84;84.35
6930;DHT22;3504;52.616;13.238;2023-02-03T23:23:53;3.77;83.99
6930;DHT22;3504;52.616;13.238;2023-02-03T23:28:53;3.77;84.00
6930;DHT22;3504;52.616;13.238;2023-02-03T23:33:54;3.76;83.81
6930;DHT22;3504;52.616;13.238;2023-02-03T23:39:13;3.74;83.37
6930;DHT22;3504;52.616;13.238;2023-02-03T23:44:13;3.66;82.83
6930;DHT22;3504;52.616;13.238;2023-02-03T23:49:14;3.63;83.42
6930;DHT22;3504;52.616;13.238;2023-02-03T23:54:15;3.64;83.02
6930;DHT22;3504;52.616;13.238;2023-02-03T23:59:15;3.67;82.62
